createdAt,value
2023-05-16T00:00:56.572Z,13.07
2023-05-16T00:01:56.661Z,13.10
2023-05-16T00:02:56.661Z,13.09
2023-05-16T00:03:56.711Z,13.10
2023-05-16T00:04:56.670Z,13.11
2023-05-16T00:05:56.716Z,13.10
2023-05-16T00:06:56.750Z,13.08
2023-05-16T00:07:56.774Z,13.05
2023-05-16T00:08:56.810Z,12.90
2023-05-16T00:09:56.823Z,12.87
2023-05-16T00:10:56.802Z,12.85
2023-05-16T00:11:56.815Z,12.81
2023-05-16T00:12:56.882Z,12.73
2023-05-16T00:13:56.885Z,12.79
2023-05-16T00:14:56.913Z,12.87
2023-05-16T00:15:56.932Z,12.88
2023-05-16T00:16:57.045Z,12.87
2023-05-16T00:17:57.032Z,12.89
2023-05-16T00:18:57.100Z,12.86
2023-05-16T00:19:57.134Z,12.88
2023-05-16T00:20:57.187Z,12.91
2023-05-16T00:21:57.203Z,12.94
2023-05-16T00:22:57.221Z,12.93
2023-05-16T00:23:57.263Z,12.90
2023-05-16T00:24:57.266Z,12.91
2023-05-16T00:25:57.310Z,12.93
2023-05-16T00:26:57.319Z,12.99
2023-05-16T00:27:57.361Z,13.02
2023-05-16T00:28:57.431Z,13.07
2023-05-16T00:29:57.396Z,13.08
2023-05-16T00:30:57.454Z,13.05
2023-05-16T00:31:57.601Z,13.06
2023-05-16T00:32:57.603Z,13.07
2023-05-16T00:33:57.597Z,13.06
2023-05-16T00:34:57.638Z,13.04
2023-05-16T00:35:57.684Z,13.04
2023-05-16T00:36:57.750Z,13.01
2023-05-16T00:37:57.799Z,12.95
2023-05-16T00:38:57.863Z,12.93
2023-05-16T00:39:57.842Z,12.98
2023-05-16T00:40:57.911Z,13.01
2023-05-16T00:41:57.895Z,13.03
2023-05-16T00:42:57.943Z,13.03
2023-05-16T00:43:57.932Z,12.96
2023-05-16T00:44:58.017Z,12.97
2023-05-16T00:45:58.171Z,12.96
2023-05-16T00:46:58.015Z,13.00
2023-05-16T00:47:58.107Z,13.02
2023-05-16T00:48:58.095Z,12.99
2023-05-16T00:49:58.154Z,12.98
2023-05-16T00:50:58.194Z,13.02
2023-05-16T00:51:58.208Z,13.06
2023-05-16T00:52:58.316Z,13.06
2023-05-16T00:53:58.300Z,12.99
2023-05-16T00:54:58.385Z,13.01
2023-05-16T00:55:58.431Z,13.01
2023-05-16T00:56:58.436Z,12.98
2023-05-16T00:57:58.502Z,12.95
2023-05-16T00:58:58.509Z,12.99
2023-05-16T00:59:58.550Z,13.03
2023-05-16T01:00:58.576Z,13.05
2023-05-16T01:01:58.653Z,13.04
2023-05-16T01:02:58.641Z,13.05
2023-05-16T01:03:58.676Z,13.02
2023-05-16T01:04:58.746Z,13.06
2023-05-16T01:05:58.713Z,13.11
2023-05-16T01:06:58.722Z,13.13
2023-05-16T01:07:58.728Z,13.12
2023-05-16T01:08:58.759Z,13.13
2023-05-16T01:09:58.779Z,13.15
2023-05-16T01:10:58.776Z,13.20
2023-05-16T01:11:58.843Z,13.18
2023-05-16T01:12:58.820Z,13.21
2023-05-16T01:13:58.905Z,13.24
2023-05-16T01:14:58.899Z,13.27
2023-05-16T01:15:58.920Z,13.30
2023-05-16T01:16:58.956Z,13.33
2023-05-16T01:17:59.017Z,13.34
2023-05-16T01:18:59.000Z,13.36
2023-05-16T01:19:59.047Z,13.36
2023-05-16T01:20:59.036Z,13.36
2023-05-16T01:21:59.096Z,13.36
2023-05-16T01:22:59.082Z,13.40
2023-05-16T01:23:59.090Z,13.41
2023-05-16T01:24:59.147Z,13.39
2023-05-16T01:25:59.180Z,13.42
2023-05-16T01:26:59.166Z,13.40
2023-05-16T01:27:59.187Z,13.36
2023-05-16T01:28:59.246Z,13.27
2023-05-16T01:29:59.252Z,13.20
2023-05-16T01:30:59.328Z,13.15
2023-05-16T01:31:59.461Z,13.10
2023-05-16T01:32:59.366Z,13.05
2023-05-16T01:33:59.432Z,13.06
2023-05-16T01:34:59.392Z,13.06
2023-05-16T01:35:59.446Z,13.08
2023-05-16T01:36:59.439Z,13.12
2023-05-16T01:37:59.499Z,13.14
2023-05-16T01:38:59.539Z,13.14
2023-05-16T01:39:59.629Z,13.10
2023-05-16T01:40:59.580Z,13.07
2023-05-16T01:41:59.622Z,13.06
2023-05-16T01:42:59.659Z,13.03
2023-05-16T01:43:59.697Z,13.04
2023-05-16T01:44:59.704Z,13.05
2023-05-16T01:45:59.751Z,12.98
2023-05-16T01:46:59.832Z,12.95
2023-05-16T01:47:59.804Z,12.98
2023-05-16T01:48:59.784Z,12.95
2023-05-16T01:49:59.834Z,12.92
2023-05-16T01:50:59.871Z,12.90
2023-05-16T01:51:59.888Z,12.88
2023-05-16T01:52:59.959Z,12.91
2023-05-16T01:53:59.971Z,12.87
2023-05-16T01:54:59.974Z,12.86
2023-05-16T01:56:00.023Z,12.91
2023-05-16T01:57:00.025Z,12.94
2023-05-16T01:58:00.116Z,12.97
2023-05-16T01:59:00.063Z,12.97
2023-05-16T02:00:00.132Z,13.01
2023-05-16T02:01:00.308Z,13.03
2023-05-16T02:02:00.142Z,13.05
2023-05-16T02:03:00.270Z,13.10
2023-05-16T02:04:00.318Z,13.13
2023-05-16T02:05:00.291Z,13.12
2023-05-16T02:06:00.346Z,13.02
2023-05-16T02:07:00.350Z,12.85
2023-05-16T02:08:00.376Z,12.72
2023-05-16T02:09:00.356Z,12.65
2023-05-16T02:10:00.373Z,12.59
2023-05-16T02:11:00.414Z,12.59
2023-05-16T02:12:00.437Z,12.57
2023-05-16T02:13:00.457Z,12.69
2023-05-16T02:14:00.507Z,12.83
2023-05-16T02:15:00.553Z,12.93
2023-05-16T02:16:00.539Z,13.00
2023-05-16T02:17:00.658Z,13.02
2023-05-16T02:18:00.691Z,13.03
2023-05-16T02:19:00.648Z,13.06
2023-05-16T02:20:00.629Z,13.06
2023-05-16T02:21:00.645Z,13.05
2023-05-16T02:22:00.667Z,13.03
2023-05-16T02:23:00.710Z,13.06
2023-05-16T02:24:00.769Z,13.10
2023-05-16T02:25:00.770Z,13.10
2023-05-16T02:26:00.774Z,13.10
2023-05-16T02:27:00.793Z,13.11
2023-05-16T02:28:00.788Z,13.11
2023-05-16T02:29:00.831Z,13.09
2023-05-16T02:30:00.907Z,13.14
2023-05-16T02:31:01.022Z,13.16
2023-05-16T02:32:00.965Z,13.15
2023-05-16T02:33:00.962Z,13.17
2023-05-16T02:34:01.006Z,13.08
2023-05-16T02:35:01.004Z,13.03
2023-05-16T02:36:00.997Z,13.05
2023-05-16T02:37:01.040Z,13.08
2023-05-16T02:38:01.103Z,13.11
2023-05-16T02:39:01.144Z,13.13
2023-05-16T02:40:01.173Z,13.15
2023-05-16T02:41:01.166Z,13.16
2023-05-16T02:42:01.176Z,13.19
2023-05-16T02:43:01.243Z,13.19
2023-05-16T02:44:01.252Z,13.15
2023-05-16T02:45:01.309Z,13.12
2023-05-16T02:46:01.400Z,13.11
2023-05-16T02:47:01.422Z,13.08
2023-05-16T02:48:01.474Z,12.92
2023-05-16T02:49:01.460Z,12.76
2023-05-16T02:50:01.461Z,12.80
2023-05-16T02:51:01.509Z,12.87
2023-05-16T02:52:01.487Z,12.92
2023-05-16T02:53:01.507Z,12.97
2023-05-16T02:54:01.512Z,12.98
2023-05-16T02:55:16.849Z,12.94
2023-05-16T02:56:02.503Z,12.94
2023-05-16T02:57:01.534Z,12.94
2023-05-16T02:58:01.505Z,12.97
2023-05-16T02:59:01.497Z,13.03
2023-05-16T03:00:01.491Z,13.03
2023-05-16T03:01:01.461Z,13.07
2023-05-16T03:02:01.645Z,13.08
2023-05-16T03:03:01.565Z,13.09
2023-05-16T03:04:01.553Z,13.07
2023-05-16T03:05:01.463Z,13.07
2023-05-16T03:06:01.504Z,13.05
2023-05-16T03:07:01.436Z,13.06
2023-05-16T03:08:01.413Z,13.06
2023-05-16T03:09:01.404Z,13.05
2023-05-16T03:10:01.439Z,13.09
2023-05-16T03:11:01.465Z,13.10
2023-05-16T03:12:01.496Z,13.12
2023-05-16T03:13:01.551Z,13.12
2023-05-16T03:14:02.022Z,13.10
2023-05-16T03:15:01.552Z,13.10
2023-05-16T03:16:01.660Z,13.11
2023-05-16T03:17:01.644Z,13.15
2023-05-16T03:18:01.724Z,13.16
2023-05-16T03:19:01.760Z,13.14
2023-05-16T03:20:01.729Z,13.15
2023-05-16T03:21:01.691Z,13.15
2023-05-16T03:22:01.736Z,13.13
2023-05-16T03:23:01.749Z,13.12
2023-05-16T03:24:01.838Z,13.10
2023-05-16T03:25:01.818Z,13.08
2023-05-16T03:26:01.825Z,13.09
2023-05-16T03:27:01.875Z,13.09
2023-05-16T03:28:01.954Z,13.10
2023-05-16T03:29:01.948Z,13.06
2023-05-16T03:30:01.968Z,13.07
2023-05-16T03:31:01.984Z,13.10
2023-05-16T03:32:02.175Z,13.14
2023-05-16T03:33:02.125Z,13.16
2023-05-16T03:34:02.076Z,13.14
2023-05-16T03:35:02.118Z,13.18
2023-05-16T03:36:02.170Z,13.19
2023-05-16T03:37:02.169Z,13.15
2023-05-16T03:38:02.193Z,13.13
2023-05-16T03:39:02.201Z,13.15
2023-05-16T03:40:02.221Z,13.18
2023-05-16T03:41:02.244Z,13.21
2023-05-16T03:42:02.238Z,13.25
2023-05-16T03:43:02.265Z,13.27
2023-05-16T03:44:02.288Z,13.27
2023-05-16T03:45:02.304Z,13.23
2023-05-16T03:46:02.333Z,13.22
2023-05-16T03:47:02.331Z,13.24
2023-05-16T03:48:02.403Z,13.25
2023-05-16T03:49:02.415Z,13.23
2023-05-16T03:50:02.420Z,13.22
2023-05-16T03:51:02.430Z,13.19
2023-05-16T03:52:02.478Z,13.18
2023-05-16T03:53:02.502Z,13.18
2023-05-16T03:54:02.527Z,13.16
2023-05-16T03:55:02.580Z,13.18
2023-05-16T03:56:02.620Z,13.19
2023-05-16T03:57:02.635Z,13.22
2023-05-16T03:58:02.679Z,13.22
2023-05-16T03:59:02.757Z,13.23
2023-05-16T04:00:02.761Z,13.26
2023-05-16T04:01:02.801Z,13.28
2023-05-16T04:02:02.845Z,13.31
2023-05-16T04:03:02.867Z,13.30
2023-05-16T04:04:02.831Z,13.29
2023-05-16T04:05:02.857Z,13.30
2023-05-16T04:06:02.889Z,13.32
2023-05-16T04:07:02.905Z,13.29
2023-05-16T04:08:02.957Z,13.25
2023-05-16T04:09:02.978Z,13.22
2023-05-16T04:10:03.082Z,13.21
2023-05-16T04:11:03.077Z,13.18
2023-05-16T04:12:03.094Z,13.15
2023-05-16T04:13:03.083Z,13.19
2023-05-16T04:14:03.215Z,13.24
2023-05-16T04:15:03.168Z,13.29
2023-05-16T04:16:03.212Z,13.32
2023-05-16T04:17:03.289Z,13.35
2023-05-16T04:18:03.361Z,13.33
2023-05-16T04:19:03.344Z,13.28
2023-05-16T04:20:03.259Z,13.28
2023-05-16T04:21:03.333Z,13.29
2023-05-16T04:22:03.352Z,13.29
2023-05-16T04:23:03.348Z,13.25
2023-05-16T04:24:03.411Z,13.23
2023-05-16T04:25:03.437Z,13.27
2023-05-16T04:26:03.469Z,13.31
2023-05-16T04:27:03.528Z,13.34
2023-05-16T04:28:03.537Z,13.37
2023-05-16T04:29:03.698Z,13.41
2023-05-16T04:30:03.598Z,13.44
2023-05-16T04:31:03.697Z,13.40
2023-05-16T04:32:03.758Z,13.40
2023-05-16T04:33:03.685Z,13.40
2023-05-16T04:34:03.685Z,13.42
2023-05-16T04:35:03.740Z,13.41
2023-05-16T04:36:03.757Z,13.42
2023-05-16T04:37:03.750Z,13.40
2023-05-16T04:38:03.818Z,13.38
2023-05-16T04:39:03.812Z,13.39
2023-05-16T04:40:03.899Z,13.39
2023-05-16T04:41:03.926Z,13.40
2023-05-16T04:42:03.912Z,13.44
2023-05-16T04:43:03.927Z,13.43
2023-05-16T04:44:03.954Z,13.44
2023-05-16T04:45:03.997Z,13.44
2023-05-16T04:46:04.018Z,13.37
2023-05-16T04:47:03.987Z,13.37
2023-05-16T04:48:04.129Z,13.40
2023-05-16T04:49:04.028Z,13.40
2023-05-16T04:50:04.085Z,13.38
2023-05-16T04:51:04.101Z,13.38
2023-05-16T04:52:04.159Z,13.40
2023-05-16T04:53:04.136Z,13.42
2023-05-16T04:54:04.167Z,13.38
2023-05-16T04:55:04.177Z,13.34
2023-05-16T04:56:04.174Z,13.34
2023-05-16T04:57:04.221Z,13.32
2023-05-16T04:58:04.242Z,13.34
2023-05-16T04:59:04.252Z,13.39
2023-05-16T05:00:04.298Z,13.43
2023-05-16T05:01:04.321Z,13.46
2023-05-16T05:02:04.444Z,13.48
2023-05-16T05:03:04.439Z,13.51
2023-05-16T05:04:04.427Z,13.54
2023-05-16T05:05:04.487Z,13.54
2023-05-16T05:06:04.461Z,13.56
2023-05-16T05:07:04.534Z,13.58
2023-05-16T05:08:04.564Z,13.55
2023-05-16T05:09:04.597Z,13.53
2023-05-16T05:10:04.674Z,13.42
2023-05-16T05:11:04.680Z,13.30
2023-05-16T05:12:04.699Z,13.33
2023-05-16T05:13:04.785Z,13.29
2023-05-16T05:14:04.828Z,13.12
2023-05-16T05:15:04.843Z,13.18
2023-05-16T05:16:04.959Z,13.25
2023-05-16T05:17:04.967Z,13.32
2023-05-16T05:18:05.105Z,13.35
2023-05-16T05:19:05.166Z,13.35
2023-05-16T05:20:05.070Z,13.34
2023-05-16T05:21:05.119Z,13.37
2023-05-16T05:22:05.156Z,13.34
2023-05-16T05:23:05.201Z,13.32
2023-05-16T05:24:05.218Z,13.29
2023-05-16T05:25:05.309Z,13.26
2023-05-16T05:26:05.340Z,13.18
2023-05-16T05:27:05.340Z,13.14
2023-05-16T05:28:05.412Z,13.06
2023-05-16T05:29:06.238Z,13.00
2023-05-16T05:30:05.510Z,13.01
2023-05-16T05:31:05.526Z,13.07
2023-05-16T05:32:05.671Z,13.06
2023-05-16T05:33:05.731Z,13.06
2023-05-16T05:34:05.667Z,13.15
2023-05-16T05:35:05.694Z,13.12
2023-05-16T05:36:05.725Z,13.04
2023-05-16T05:37:05.812Z,13.03
2023-05-16T05:38:05.805Z,13.10
2023-05-16T05:39:05.833Z,13.19
2023-05-16T05:40:05.879Z,13.22
2023-05-16T05:41:05.937Z,13.18
2023-05-16T05:42:05.975Z,13.12
2023-05-16T05:43:06.012Z,13.09
2023-05-16T05:44:06.073Z,13.07
2023-05-16T05:45:06.116Z,13.16
2023-05-16T05:46:06.177Z,13.22
2023-05-16T05:47:06.183Z,13.28
2023-05-16T05:48:06.303Z,13.22
2023-05-16T05:49:06.249Z,13.24
2023-05-16T05:50:06.198Z,13.26
2023-05-16T05:51:06.251Z,13.31
2023-05-16T05:52:06.255Z,13.37
2023-05-16T05:53:06.484Z,13.37
2023-05-16T05:54:06.286Z,13.37
2023-05-16T05:55:06.332Z,13.34
2023-05-16T05:56:06.311Z,13.30
2023-05-16T05:57:06.370Z,13.25
2023-05-16T05:58:07.269Z,13.25
2023-05-16T05:59:06.450Z,13.26
2023-05-16T06:00:06.422Z,13.25
2023-05-16T06:01:06.472Z,13.27
2023-05-16T06:02:06.520Z,13.32
2023-05-16T06:03:06.557Z,13.34
2023-05-16T06:04:06.568Z,13.36
2023-05-16T06:05:06.606Z,13.39
2023-05-16T06:06:06.822Z,13.31
2023-05-16T06:07:06.646Z,13.28
2023-05-16T06:08:06.639Z,13.32
2023-05-16T06:09:06.681Z,13.32
2023-05-16T06:10:06.690Z,13.36
2023-05-16T06:11:06.736Z,13.37
2023-05-16T06:12:06.749Z,13.39
2023-05-16T06:13:06.822Z,13.34
2023-05-16T06:14:06.804Z,13.35
2023-05-16T06:15:06.828Z,13.25
2023-05-16T06:16:09.359Z,13.26
2023-05-16T06:17:06.861Z,13.24
2023-05-16T06:18:06.904Z,13.23
2023-05-16T06:19:06.857Z,13.25
2023-05-16T06:20:06.871Z,13.19
2023-05-16T06:21:06.791Z,13.09
2023-05-16T06:22:06.813Z,13.17
2023-05-16T06:23:06.763Z,13.20
2023-05-16T06:24:06.777Z,13.22
2023-05-16T06:25:06.804Z,13.24
2023-05-16T06:26:06.799Z,13.24
2023-05-16T06:27:06.797Z,13.27
2023-05-16T06:28:06.727Z,13.28
2023-05-16T06:29:06.735Z,13.20
2023-05-16T06:30:06.759Z,13.12
2023-05-16T06:31:06.765Z,13.06
2023-05-16T06:32:06.718Z,12.73
2023-05-16T06:33:06.817Z,12.70
2023-05-16T06:34:06.709Z,12.73
2023-05-16T06:35:06.718Z,12.81
2023-05-16T06:36:06.710Z,12.90
2023-05-16T06:37:06.695Z,12.85
2023-05-16T06:38:06.960Z,12.90
2023-05-16T06:39:06.995Z,12.96
2023-05-16T06:40:06.679Z,12.91
2023-05-16T06:41:06.648Z,12.83
2023-05-16T06:42:06.677Z,12.71
2023-05-16T06:43:06.669Z,12.74
2023-05-16T06:44:06.657Z,12.65
2023-05-16T06:45:06.641Z,12.59
2023-05-16T06:46:06.635Z,12.54
2023-05-16T06:47:06.654Z,12.51
2023-05-16T06:48:06.656Z,12.56
2023-05-16T06:49:06.593Z,12.69
2023-05-16T06:50:06.580Z,12.76
2023-05-16T06:51:06.568Z,12.78
2023-05-16T06:52:06.584Z,12.88
2023-05-16T06:53:06.752Z,12.93
2023-05-16T06:54:06.572Z,12.86
2023-05-16T06:55:06.569Z,12.73
2023-05-16T06:56:06.562Z,12.82
2023-05-16T06:57:06.579Z,12.80
2023-05-16T06:58:06.497Z,12.92
2023-05-16T06:59:06.524Z,13.04
2023-05-16T07:00:06.545Z,13.11
2023-05-16T07:01:06.609Z,13.19
2023-05-16T07:02:06.574Z,13.21
2023-05-16T07:03:06.612Z,13.30
2023-05-16T07:04:06.775Z,13.35
2023-05-16T07:05:06.520Z,13.30
2023-05-16T07:06:06.535Z,13.31
2023-05-16T07:07:06.577Z,13.36
2023-05-16T07:08:07.965Z,13.40
2023-05-16T07:09:06.686Z,13.38
2023-05-16T07:10:06.769Z,13.22
2023-05-16T07:11:07.466Z,12.89
2023-05-16T07:12:07.413Z,12.74
2023-05-16T07:13:06.890Z,12.49
2023-05-16T07:14:07.462Z,12.27
2023-05-16T07:15:06.928Z,12.11
2023-05-16T07:16:06.974Z,12.10
2023-05-16T07:17:07.007Z,12.07
2023-05-16T07:18:07.037Z,12.04
2023-05-16T07:19:07.145Z,12.08
2023-05-16T07:20:07.119Z,12.22
2023-05-16T07:21:07.168Z,12.32
2023-05-16T07:22:07.245Z,12.48
2023-05-16T07:23:07.301Z,12.57
2023-05-16T07:24:07.297Z,12.67
2023-05-16T07:25:07.370Z,12.79
2023-05-16T07:26:07.386Z,12.92
2023-05-16T07:27:07.446Z,13.03
2023-05-16T07:28:07.488Z,13.09
2023-05-16T07:29:07.536Z,13.17
2023-05-16T07:30:07.655Z,13.19
2023-05-16T07:31:07.600Z,13.23
2023-05-16T07:32:07.872Z,13.31
2023-05-16T07:33:07.716Z,13.38
2023-05-16T07:34:07.724Z,13.40
2023-05-16T07:35:07.759Z,13.41
2023-05-16T07:36:16.188Z,13.47
2023-05-16T07:37:08.767Z,13.50
2023-05-16T07:38:07.753Z,13.51
2023-05-16T07:39:07.763Z,13.54
2023-05-16T07:40:07.757Z,13.57
2023-05-16T07:41:07.775Z,13.57
2023-05-16T07:42:07.733Z,13.53
2023-05-16T07:43:07.734Z,13.53
2023-05-16T07:44:07.718Z,13.52
2023-05-16T07:45:07.733Z,13.53
2023-05-16T07:46:07.763Z,13.48
2023-05-16T07:47:07.726Z,13.45
2023-05-16T07:48:07.750Z,13.47
2023-05-16T07:49:07.967Z,13.48
2023-05-16T07:50:07.675Z,13.50
2023-05-16T07:51:07.667Z,13.52
2023-05-16T07:52:07.723Z,13.55
2023-05-16T07:53:07.743Z,13.56
2023-05-16T07:54:07.812Z,13.58
2023-05-16T07:55:07.804Z,13.58
2023-05-16T07:56:08.650Z,13.56
2023-05-16T07:57:07.861Z,13.56
2023-05-16T07:58:07.875Z,13.55
2023-05-16T07:59:07.944Z,13.58
2023-05-16T08:00:08.123Z,13.55
2023-05-16T08:01:07.959Z,13.54
2023-05-16T08:02:07.939Z,13.52
2023-05-16T08:03:08.127Z,13.54
2023-05-16T08:04:08.020Z,13.57
2023-05-16T08:05:08.099Z,13.65
2023-05-16T08:06:08.139Z,13.68
2023-05-16T08:07:08.147Z,13.69
2023-05-16T08:08:08.181Z,13.68
2023-05-16T08:09:08.248Z,13.73
2023-05-16T08:10:08.261Z,13.78
2023-05-16T08:11:08.301Z,13.83
2023-05-16T08:12:08.296Z,13.87
2023-05-16T08:13:08.652Z,13.89
2023-05-16T08:14:08.381Z,13.92
2023-05-16T08:15:08.455Z,13.95
2023-05-16T08:16:08.545Z,13.97
2023-05-16T08:17:08.460Z,14.01
2023-05-16T08:18:08.550Z,14.02
2023-05-16T08:19:08.587Z,14.01
2023-05-16T08:20:08.584Z,14.02
2023-05-16T08:21:08.580Z,14.05
2023-05-16T08:22:08.595Z,14.07
2023-05-16T08:23:08.636Z,14.10
2023-05-16T08:24:08.700Z,14.08
2023-05-16T08:25:08.692Z,13.97
2023-05-16T08:26:08.731Z,13.99
2023-05-16T08:27:08.749Z,13.92
2023-05-16T08:28:08.751Z,13.94
2023-05-16T08:29:08.774Z,13.99
2023-05-16T08:30:08.757Z,14.02
2023-05-16T08:31:08.834Z,14.02
2023-05-16T08:32:08.862Z,14.02
2023-05-16T08:33:08.981Z,14.01
2023-05-16T08:34:08.939Z,13.98
2023-05-16T08:35:08.930Z,13.98
2023-05-16T08:36:08.977Z,13.99
2023-05-16T08:37:08.969Z,13.98
2023-05-16T08:38:08.962Z,14.02
2023-05-16T08:39:09.007Z,14.02
2023-05-16T08:40:09.051Z,14.05
2023-05-16T08:41:09.073Z,14.05
2023-05-16T08:42:09.126Z,14.08
2023-05-16T08:43:09.186Z,14.11
2023-05-16T08:44:09.181Z,14.16
2023-05-16T08:45:09.188Z,14.22
2023-05-16T08:46:09.218Z,14.29
2023-05-16T08:47:09.289Z,14.23
2023-05-16T08:48:10.552Z,14.23
2023-05-16T08:49:09.286Z,14.27
2023-05-16T08:50:09.341Z,14.29
2023-05-16T08:51:09.353Z,14.23
2023-05-16T08:52:09.415Z,14.22
2023-05-16T08:53:09.448Z,14.26
2023-05-16T08:54:09.498Z,14.33
2023-05-16T08:55:11.357Z,14.37
2023-05-16T08:56:09.536Z,14.41
2023-05-16T08:57:09.520Z,14.47
2023-05-16T08:58:09.562Z,14.54
2023-05-16T08:59:09.599Z,14.59
2023-05-16T09:00:09.612Z,14.67
2023-05-16T09:01:09.678Z,14.70
2023-05-16T09:02:09.718Z,14.63
2023-05-16T09:03:09.735Z,14.57
2023-05-16T09:04:09.856Z,14.63
2023-05-16T09:05:09.780Z,14.71
2023-05-16T09:06:09.782Z,14.65
2023-05-16T09:07:09.862Z,14.70
2023-05-16T09:08:09.854Z,14.72
2023-05-16T09:09:09.912Z,14.77
2023-05-16T09:10:09.972Z,14.81
2023-05-16T09:11:10.012Z,14.90
2023-05-16T09:12:10.034Z,14.94
2023-05-16T09:13:10.063Z,15.00
2023-05-16T09:14:10.090Z,15.05
2023-05-16T09:15:10.110Z,15.05
2023-05-16T09:16:10.146Z,15.04
2023-05-16T09:17:12.348Z,14.96
2023-05-16T09:18:10.245Z,14.93
2023-05-16T09:19:10.292Z,14.89
2023-05-16T09:20:10.265Z,14.90
2023-05-16T09:21:10.312Z,14.89
2023-05-16T09:22:10.358Z,14.93
2023-05-16T09:23:10.364Z,14.95
2023-05-16T09:24:10.360Z,14.96
2023-05-16T09:25:18.336Z,14.96
2023-05-16T09:26:11.396Z,14.97
2023-05-16T09:27:10.455Z,14.95
2023-05-16T09:28:10.412Z,14.99
2023-05-16T09:29:10.393Z,14.99
2023-05-16T09:30:10.413Z,14.98
2023-05-16T09:31:10.453Z,15.02
2023-05-16T09:32:10.375Z,15.04
2023-05-16T09:33:10.460Z,14.87
2023-05-16T09:34:10.369Z,14.88
2023-05-16T09:35:10.335Z,14.80
2023-05-16T09:36:10.341Z,14.72
2023-05-16T09:37:10.515Z,14.61
2023-05-16T09:38:10.493Z,14.63
2023-05-16T09:39:10.354Z,14.70
2023-05-16T09:40:10.293Z,14.78
2023-05-16T09:41:10.310Z,14.76
2023-05-16T09:42:10.326Z,14.67
2023-05-16T09:43:10.287Z,14.72
2023-05-16T09:44:10.326Z,14.77
2023-05-16T09:45:10.294Z,14.82
2023-05-16T09:46:10.371Z,14.87
2023-05-16T09:47:10.374Z,14.88
2023-05-16T09:48:10.492Z,14.89
2023-05-16T09:49:10.441Z,14.88
2023-05-16T09:50:10.459Z,14.88
2023-05-16T09:51:10.469Z,14.89
2023-05-16T09:52:10.565Z,14.89
2023-05-16T09:53:10.537Z,14.89
2023-05-16T09:54:10.577Z,14.76
2023-05-16T09:55:10.632Z,14.63
2023-05-16T09:56:12.012Z,14.59
2023-05-16T09:57:10.735Z,14.66
2023-05-16T09:58:10.777Z,14.56
2023-05-16T09:59:10.730Z,14.50
2023-05-16T10:00:10.811Z,14.57
2023-05-16T10:01:10.798Z,14.50
2023-05-16T10:02:10.829Z,14.41
2023-05-16T10:03:10.881Z,14.39
2023-05-16T10:04:10.891Z,14.37
2023-05-16T10:05:10.887Z,14.26
2023-05-16T10:06:10.832Z,14.30
2023-05-16T10:07:10.887Z,14.39
2023-05-16T10:08:10.909Z,14.41
2023-05-16T10:09:10.925Z,14.25
2023-05-16T10:10:10.967Z,14.32
2023-05-16T10:11:10.966Z,14.40
2023-05-16T10:12:11.012Z,14.34
2023-05-16T10:13:11.014Z,14.26
2023-05-16T10:14:11.043Z,14.13
2023-05-16T10:15:11.053Z,14.01
2023-05-16T10:16:11.184Z,13.97
2023-05-16T10:17:11.088Z,14.09
2023-05-16T10:18:11.311Z,14.15
2023-05-16T10:19:11.225Z,14.17
2023-05-16T10:20:11.192Z,14.23
2023-05-16T10:21:12.214Z,14.30
2023-05-16T10:22:11.241Z,14.30
2023-05-16T10:23:11.287Z,14.32
2023-05-16T10:24:11.295Z,14.32
2023-05-16T10:25:11.300Z,14.33
2023-05-16T10:26:11.358Z,14.26
2023-05-16T10:27:11.324Z,14.27
2023-05-16T10:28:11.394Z,14.34
2023-05-16T10:29:11.435Z,14.24
2023-05-16T10:30:11.506Z,14.16
2023-05-16T10:31:11.499Z,14.17
2023-05-16T10:32:12.486Z,14.23
2023-05-16T10:33:11.596Z,14.26
2023-05-16T10:34:11.619Z,14.35
2023-05-16T10:35:11.637Z,14.37
2023-05-16T10:36:11.633Z,14.29
2023-05-16T10:37:11.680Z,14.27
2023-05-16T10:38:11.658Z,14.29
2023-05-16T10:39:11.666Z,14.38
2023-05-16T10:40:11.689Z,14.37
2023-05-16T10:41:11.696Z,14.24
2023-05-16T10:42:11.738Z,14.25
2023-05-16T10:43:11.775Z,14.30
2023-05-16T10:44:11.775Z,14.26
2023-05-16T10:45:11.788Z,14.32
2023-05-16T10:46:11.910Z,14.22
2023-05-16T10:47:11.806Z,14.09
2023-05-16T10:48:11.866Z,14.19
2023-05-16T10:49:11.858Z,14.26
2023-05-16T10:50:11.836Z,14.28
2023-05-16T10:51:11.880Z,14.27
2023-05-16T10:52:11.855Z,14.24
2023-05-16T10:53:11.925Z,14.27
2023-05-16T10:54:11.887Z,14.29
2023-05-16T10:55:11.893Z,14.39
2023-05-16T10:56:11.909Z,14.48
2023-05-16T10:57:11.954Z,14.56
2023-05-16T10:58:11.976Z,14.63
2023-05-16T10:59:12.017Z,14.67
2023-05-16T11:00:12.103Z,14.70
2023-05-16T11:01:12.109Z,14.73
2023-05-16T11:02:12.207Z,14.77
2023-05-16T11:03:12.222Z,14.82
2023-05-16T11:04:12.216Z,14.76
2023-05-16T11:05:12.224Z,14.78
2023-05-16T11:06:12.223Z,14.63
2023-05-16T11:07:12.241Z,14.62
2023-05-16T11:08:12.274Z,14.56
2023-05-16T11:09:12.513Z,14.41
2023-05-16T11:10:12.320Z,14.45
2023-05-16T11:11:12.311Z,14.55
2023-05-16T11:12:12.297Z,14.60
2023-05-16T11:13:12.406Z,14.66
2023-05-16T11:14:12.350Z,14.72
2023-05-16T11:15:12.343Z,14.62
2023-05-16T11:16:12.363Z,14.49
2023-05-16T11:17:12.565Z,14.44
2023-05-16T11:18:12.453Z,14.52
2023-05-16T11:19:14.019Z,14.62
2023-05-16T11:20:12.436Z,14.72
2023-05-16T11:21:12.515Z,14.69
2023-05-16T11:22:12.469Z,14.74
2023-05-16T11:23:12.538Z,14.83
2023-05-16T11:24:12.469Z,14.85
2023-05-16T11:25:12.456Z,14.72
2023-05-16T11:26:12.473Z,14.67
2023-05-16T11:27:12.520Z,14.63
2023-05-16T11:28:12.531Z,14.62
2023-05-16T11:29:12.540Z,14.70
2023-05-16T11:30:12.635Z,14.83
2023-05-16T11:31:12.715Z,14.89
2023-05-16T11:32:12.740Z,14.96
2023-05-16T11:33:13.035Z,15.05
2023-05-16T11:34:12.867Z,15.14
2023-05-16T11:35:25.664Z,15.16
2023-05-16T11:36:15.748Z,15.09
2023-05-16T11:37:12.883Z,15.11
2023-05-16T11:38:12.888Z,15.24
2023-05-16T11:39:12.857Z,15.24
2023-05-16T11:40:12.848Z,15.28
2023-05-16T11:41:12.830Z,15.37
2023-05-16T11:42:12.807Z,15.42
2023-05-16T11:43:12.819Z,15.50
2023-05-16T11:44:12.807Z,15.52
2023-05-16T11:45:12.786Z,15.62
2023-05-16T11:46:12.806Z,15.68
2023-05-16T11:47:12.938Z,15.69
2023-05-16T11:48:18.988Z,15.72
2023-05-16T11:49:13.780Z,15.75
2023-05-16T11:50:12.760Z,15.70
2023-05-16T11:51:12.767Z,15.66
2023-05-16T11:52:12.752Z,15.72
2023-05-16T11:53:12.755Z,15.71
2023-05-16T11:54:12.748Z,15.74
2023-05-16T11:55:15.599Z,15.78
2023-05-16T11:56:12.707Z,15.80
2023-05-16T11:57:12.835Z,15.84
2023-05-16T11:58:12.726Z,15.83
2023-05-16T11:59:12.714Z,15.70
2023-05-16T12:00:12.700Z,15.71
2023-05-16T12:01:12.712Z,15.75
2023-05-16T12:02:12.705Z,15.56
2023-05-16T12:03:12.747Z,15.43
2023-05-16T12:04:12.910Z,15.53
2023-05-16T12:05:12.738Z,15.50
2023-05-16T12:06:12.683Z,15.34
2023-05-16T12:07:12.685Z,15.23
2023-05-16T12:08:12.655Z,15.19
2023-05-16T12:09:12.673Z,15.17
2023-05-16T12:10:12.670Z,15.24
2023-05-16T12:11:13.245Z,15.22
2023-05-16T12:12:12.887Z,15.15
2023-05-16T12:13:12.642Z,15.02
2023-05-16T12:14:12.636Z,15.01
2023-05-16T12:15:12.607Z,15.02
2023-05-16T12:16:12.659Z,14.94
2023-05-16T12:17:12.650Z,15.03
2023-05-16T12:18:12.650Z,15.13
2023-05-16T12:19:12.644Z,14.95
2023-05-16T12:20:12.589Z,14.89
2023-05-16T12:21:12.607Z,14.85
2023-05-16T12:22:12.648Z,14.82
2023-05-16T12:23:12.714Z,14.79
2023-05-16T12:24:12.727Z,14.79
2023-05-16T12:25:12.753Z,14.81
2023-05-16T12:26:12.843Z,14.85
2023-05-16T12:27:12.851Z,14.92
2023-05-16T12:28:12.912Z,14.92
2023-05-16T12:29:13.019Z,14.78
2023-05-16T12:30:12.960Z,14.80
2023-05-16T12:31:23.143Z,14.74
2023-05-16T12:32:14.039Z,14.76
2023-05-16T12:33:13.085Z,14.80
2023-05-16T12:34:12.956Z,14.88
2023-05-16T12:35:12.988Z,14.87
2023-05-16T12:36:13.006Z,14.95
2023-05-16T12:37:12.940Z,14.81
2023-05-16T12:38:12.955Z,14.57
2023-05-16T12:39:12.914Z,14.54
2023-05-16T12:40:12.922Z,14.62
2023-05-16T12:41:12.970Z,14.74
2023-05-16T12:42:12.913Z,14.76
2023-05-16T12:43:12.949Z,14.83
2023-05-16T12:44:12.923Z,14.69
2023-05-16T12:45:12.950Z,14.67
2023-05-16T12:46:12.958Z,14.73
2023-05-16T12:47:13.569Z,14.60
2023-05-16T12:48:13.006Z,14.53
2023-05-16T12:49:12.980Z,14.57
2023-05-16T12:50:12.989Z,14.67
2023-05-16T12:51:12.950Z,14.77
2023-05-16T12:52:13.032Z,14.69
2023-05-16T12:53:13.022Z,14.69